Airfield :
LOGIN :

Register | Disclaimer

   EN    FR    IT 

 










Legend :    VFR   Marginal VFR   IFR   Intensive IFR   Very Intensive IFR
Visi :
Ceiling :
>= 8 km
>= 3000ft
5 to 8 km
1000 to 3000 ft
1500m to 5 km
500 to 1000 ft
800 to 1500m
200 to 500 ft
< 800m
< 200 ft
Symbols :   Thunderstorms  Fog  Heavy snow  Heavy precipitations  Wind > 20 kt
SIGMETs :     Misc.  Thunderstorms  Icing  Turbulence  Mountain Waves  Volcanic Ashes






- Airport Elevation : 63 ft
- IATA code : BZM


EHWO - Woensdrecht Airbase

CURRENT METAR :
  • 152059Z AUTO 10003KT 080V170 9999 FEW025 OVC220 05/02 Q1003 BLU

EXPIRED METARs :
  • 152055Z AUTO 08003KT 040V160 9999 SCT024 OVC230 05/02 Q1003 WHT
  • 152033Z AUTO 14004KT 090V200 9999 OVC024 06/02 Q1003 WHT
  • 152025Z AUTO 14005KT 100V190 9999 OVC025 06/02 Q1003 BLU
  • 151955Z AUTO 11004KT 050V160 9999 OVC022 06/02 Q1002 WHT
  • 151939Z AUTO 08003KT 9999 OVC024 05/03 Q1002 WHT
  • 151925Z AUTO VRB02KT 9999 OVC027 05/03 Q1002 BLU
  • 151855Z AUTO 14003KT 090V160 9999 OVC025 06/02 Q1002 BLU
  • 151825Z AUTO 11003KT 080V140 9999 OVC022 05/03 Q1001 WHT

TAF TAF EHWO
Valid from the 15 at 10:00 until the 15 at 22:00 UTC


150931Z 1510/1522 04008KT 9999 FEW014 SCT022 BKN050
TEMPO 1510/1516 FEW012 BKN014
BECMG 1513/1516 11006KT



MET'MAP, your aeronautical weather chart ! - Copyright ORBIFLY December 2007 - Disclaimer

ORBIFLY MET'MAP TEAM :

Programming & Development : Alexandra Zaïnal
Concept & Development : Baudouin d'Aumeries
Co-Development & Prog : Marc-Olivier Méhu
Technical & hardware support : Manuel Goepfert

Contact : metmap@orbifly.com




SOURCES & CREDITS :

   NOAA